Terminal Aerodrome Forecast
Issued by NWS Twin Cities, MN

Home | Current Version | Previous Version | Text Only | Print | Product List | Glossary Off
Versions: 1 2 3 4 5 6 7 8 9 10 11 12 13 14 15 16 17 18 19

000
FTUS43 KMPX 090935 AAA
TAFEAU
TAF AMD
KEAU 090935Z 0910/1006 32012G18KT P6SM -SHSN OVC030
     FM091200 34010KT P6SM BKN070
     FM092000 32009KT P6SM SCT050
     FM100000 28006KT P6SM SCT130=

USA.gov is the U.S. government's official web portal to all federal, state and local government web resources and services.